Time;durP1;ratioP1;P1;durP2;ratioP2;P2;SDS_P1;SDS_P2;PMS_P1;PMS_P2;Temp;Humidity;BMP_temperature;BMP_pressure;BME280_temperature;BME280_humidity;BME280_pressure;Samples;Min_cycle;Max_cycle;Signal;HPM_P1;HPM_P2
2021/09/08 00:01:14;;;;;;;14.57;10.27;;;16.40;99.90;;;;;;5006441;28;20087;-58
2021/09/08 00:03:40;;;;;;;16.05;9.85;;;16.30;99.90;;;;;;4999188;28;20050;-59
2021/09/08 00:06:05;;;;;;;14.30;10.10;;;16.30;99.90;;;;;;5009030;28;20037;-58
2021/09/08 00:08:31;;;;;;;14.10;10.55;;;16.30;99.90;;;;;;5009525;28;20116;-58
2021/09/08 00:10:57;;;;;;;17.98;9.95;;;16.30;99.90;;;;;;5010735;28;20036;-58
2021/09/08 00:13:22;;;;;;;20.20;10.13;;;16.20;99.90;;;;;;5007331;28;20049;-57
2021/09/08 00:15:48;;;;;;;14.80;10.15;;;16.20;99.90;;;;;;5000614;28;20025;-59
2021/09/08 00:18:13;;;;;;;15.48;10.77;;;16.10;99.90;;;;;;4976347;28;20056;-56
2021/09/08 00:20:39;;;;;;;14.52;9.27;;;16.10;99.90;;;;;;5016222;28;20109;-59
2021/09/08 00:23:05;;;;;;;18.08;10.07;;;16.00;99.90;;;;;;5012464;28;20033;-59
2021/09/08 00:25:30;;;;;;;14.45;10.68;;;15.80;99.90;;;;;;5007708;28;20033;-58
2021/09/08 00:27:56;;;;;;;14.75;10.13;;;15.80;99.90;;;;;;5011894;28;20515;-55
2021/09/08 00:30:21;;;;;;;16.80;10.00;;;15.70;99.90;;;;;;5007192;28;20026;-58
2021/09/08 00:32:47;;;;;;;16.42;10.10;;;15.60;99.90;;;;;;5010128;28;20030;-57
2021/09/08 00:35:13;;;;;;;15.80;10.50;;;15.60;99.90;;;;;;5009559;28;20057;-57
2021/09/08 00:37:39;;;;;;;14.88;10.63;;;15.60;99.90;;;;;;5009390;28;20489;-57
2021/09/08 00:40:07;;;;;;;17.10;9.90;;;15.60;99.90;;;;;;5003980;28;20045;-58
2021/09/08 00:42:33;;;;;;;13.25;10.30;;;15.60;99.90;;;;;;5005515;28;20092;-57
2021/09/08 00:44:59;;;;;;;15.52;10.43;;;15.70;99.90;;;;;;5002254;28;20042;-58
2021/09/08 00:47:24;;;;;;;13.23;10.13;;;15.70;99.90;;;;;;4998071;28;20026;-57
2021/09/08 00:49:50;;;;;;;16.90;11.07;;;15.60;99.90;;;;;;5007101;28;20113;-59
2021/09/08 00:52:16;;;;;;;13.63;9.77;;;15.70;99.90;;;;;;5009704;28;20030;-57
2021/09/08 00:54:47;;;;;;;19.00;10.65;;;15.70;99.90;;;;;;5008107;28;20432;-59
2021/09/08 00:57:14;;;;;;;22.65;10.40;;;15.60;99.90;;;;;;5003130;28;20076;-59
2021/09/08 00:59:44;;;;;;;15.82;10.88;;;15.60;99.90;;;;;;5014852;28;20026;-58
2021/09/08 01:02:10;;;;;;;16.83;10.75;;;15.50;99.90;;;;;;4994769;28;20086;-58
2021/09/08 01:04:36;;;;;;;17.67;12.02;;;15.60;99.90;;;;;;5005713;28;20029;-58
2021/09/08 01:07:04;;;;;;;14.43;10.13;;;15.60;99.90;;;;;;5006638;28;20034;-58
2021/09/08 01:09:29;;;;;;;14.80;10.50;;;15.60;99.90;;;;;;5006034;28;20030;-55
2021/09/08 01:11:55;;;;;;;17.10;10.77;;;15.60;99.90;;;;;;5008925;28;20025;-57
2021/09/08 01:14:21;;;;;;;16.75;12.30;;;15.50;99.90;;;;;;5008832;28;20044;-58
2021/09/08 01:16:51;;;;;;;13.07;9.60;;;15.50;99.90;;;;;;5008358;28;20072;-57
2021/09/08 01:19:18;;;;;;;14.52;10.38;;;15.60;99.90;;;;;;4989730;28;20026;-57
2021/09/08 01:21:43;;;;;;;17.60;10.18;;;15.60;99.90;;;;;;5007909;28;20084;-58
2021/09/08 01:24:09;;;;;;;16.05;10.13;;;15.60;99.90;;;;;;5004349;28;20516;-56
2021/09/08 01:26:36;;;;;;;17.98;11.15;;;15.60;99.90;;;;;;4993747;28;20030;-58
2021/09/08 01:29:02;;;;;;;14.57;10.60;;;15.60;99.90;;;;;;5002404;28;20493;-56
2021/09/08 01:31:28;;;;;;;15.68;9.77;;;15.50;99.90;;;;;;5009380;28;20044;-58
2021/09/08 01:33:53;;;;;;;22.35;11.10;;;15.50;99.90;;;;;;4995669;28;20481;-56
2021/09/08 01:36:20;;;;;;;20.17;11.43;;;15.50;99.90;;;;;;5008725;28;20022;-58
2021/09/08 01:38:45;;;;;;;16.63;9.90;;;15.50;99.90;;;;;;5007036;28;20164;-57
2021/09/08 01:41:11;;;;;;;18.63;10.07;;;15.50;99.90;;;;;;4990545;28;20598;-57
2021/09/08 01:43:37;;;;;;;18.33;10.10;;;15.50;99.90;;;;;;5007991;28;20026;-58
2021/09/08 01:46:02;;;;;;;15.93;10.43;;;15.50;99.90;;;;;;5008012;28;20444;-57
2021/09/08 01:48:28;;;;;;;14.25;9.85;;;15.50;99.90;;;;;;5005729;28;20153;-59
2021/09/08 01:50:53;;;;;;;13.90;10.25;;;15.50;99.90;;;;;;4991297;28;20022;-58
2021/09/08 01:53:19;;;;;;;14.88;9.13;;;15.50;99.90;;;;;;5001914;28;20677;-57
2021/09/08 01:55:46;;;;;;;13.52;10.25;;;15.40;99.90;;;;;;5008736;28;20022;-58
2021/09/08 01:58:11;;;;;;;14.63;9.35;;;15.40;99.90;;;;;;5005515;28;20072;-58
2021/09/08 02:00:37;;;;;;;17.58;10.20;;;15.40;99.90;;;;;;5006454;28;20489;-56
2021/09/08 02:03:03;;;;;;;22.45;10.60;;;15.40;99.90;;;;;;5006543;28;20038;-52
2021/09/08 02:05:28;;;;;;;17.08;10.48;;;15.40;99.90;;;;;;4987486;28;20021;-58
2021/09/08 02:07:54;;;;;;;20.83;10.38;;;15.40;99.90;;;;;;5008516;28;20034;-60
2021/09/08 02:10:20;;;;;;;16.67;11.15;;;15.40;99.90;;;;;;5005125;28;20033;-56
2021/09/08 02:12:45;;;;;;;20.33;10.98;;;15.40;99.90;;;;;;5011243;28;20022;-57
2021/09/08 02:15:12;;;;;;;15.93;10.30;;;15.40;99.90;;;;;;5007802;28;20018;-60
2021/09/08 02:17:38;;;;;;;15.70;9.70;;;15.40;99.90;;;;;;5009184;28;20030;-58
2021/09/08 02:20:04;;;;;;;16.48;10.82;;;15.40;99.90;;;;;;5007951;28;20080;-53
2021/09/08 02:22:29;;;;;;;15.90;11.02;;;15.40;99.90;;;;;;5008115;28;20042;-52
2021/09/08 02:24:55;;;;;;;15.85;10.45;;;15.40;99.90;;;;;;5002567;28;20031;-57
2021/09/08 02:27:21;;;;;;;18.02;10.82;;;15.30;99.90;;;;;;5001078;28;20033;-59
2021/09/08 02:29:46;;;;;;;16.17;10.15;;;15.20;99.90;;;;;;5009537;28;20030;-53
2021/09/08 02:32:12;;;;;;;16.23;10.20;;;15.20;99.90;;;;;;5003686;28;20045;-57
2021/09/08 02:34:37;;;;;;;14.80;10.57;;;15.20;99.90;;;;;;5007968;28;20072;-54
2021/09/08 02:37:03;;;;;;;17.42;10.60;;;15.20;99.90;;;;;;4993708;28;20048;-55
2021/09/08 02:39:30;;;;;;;17.27;11.05;;;15.20;99.90;;;;;;5008437;28;20504;-56
2021/09/08 02:41:56;;;;;;;24.83;10.02;;;15.20;99.90;;;;;;5005888;28;20026;-58
2021/09/08 02:44:21;;;;;;;17.98;10.68;;;15.20;99.90;;;;;;5006395;28;20037;-54
2021/09/08 02:46:47;;;;;;;17.67;10.80;;;15.20;99.90;;;;;;5008805;28;20037;-58
2021/09/08 02:49:13;;;;;;;15.75;10.32;;;15.20;99.90;;;;;;5005262;28;20042;-51
2021/09/08 02:51:38;;;;;;;16.40;10.32;;;15.20;99.90;;;;;;5009115;28;20026;-55
2021/09/08 02:54:04;;;;;;;15.85;10.65;;;15.20;99.90;;;;;;5010938;28;20419;-59
2021/09/08 02:56:29;;;;;;;17.17;10.90;;;15.10;99.90;;;;;;5005077;28;20021;-60
2021/09/08 02:58:55;;;;;;;15.70;10.50;;;15.10;99.90;;;;;;5003459;28;20540;-58
2021/09/08 03:01:20;;;;;;;15.73;11.27;;;15.00;99.90;;;;;;5007528;28;20038;-56
2021/09/08 03:03:46;;;;;;;20.60;10.57;;;15.00;99.90;;;;;;5004166;28;20124;-59
2021/09/08 03:06:12;;;;;;;17.98;10.23;;;15.00;99.90;;;;;;5007399;28;20029;-59
2021/09/08 03:08:37;;;;;;;17.52;9.77;;;15.00;99.90;;;;;;5008805;28;20065;-57
2021/09/08 03:11:03;;;;;;;15.05;9.95;;;15.00;99.90;;;;;;5005989;28;20077;-59
2021/09/08 03:13:29;;;;;;;13.35;9.60;;;15.00;99.90;;;;;;5008651;28;20113;-55
2021/09/08 03:15:55;;;;;;;18.27;11.00;;;15.00;99.90;;;;;;5003951;28;20109;-59
2021/09/08 03:18:20;;;;;;;14.35;10.55;;;15.00;99.90;;;;;;5002382;28;20030;-54
2021/09/08 03:20:46;;;;;;;14.07;10.15;;;15.00;99.90;;;;;;5002262;28;20033;-57
2021/09/08 03:23:11;;;;;;;15.57;10.35;;;15.00;99.90;;;;;;4998474;28;20037;-57
2021/09/08 03:25:37;;;;;;;17.65;10.77;;;14.90;99.90;;;;;;5003572;28;20037;-57
2021/09/08 03:28:03;;;;;;;17.77;10.57;;;14.90;99.90;;;;;;5006083;28;20045;-58
2021/09/08 03:30:29;;;;;;;19.33;10.57;;;14.90;99.90;;;;;;5013904;28;20068;-59
2021/09/08 03:32:54;;;;;;;19.38;10.60;;;14.90;99.90;;;;;;5001515;28;20110;-60
2021/09/08 03:35:21;;;;;;;17.85;11.55;;;14.80;99.90;;;;;;4998940;28;20090;-59
2021/09/08 03:37:47;;;;;;;15.75;10.90;;;14.80;99.90;;;;;;4995772;28;20034;-57
2021/09/08 03:40:13;;;;;;;15.02;11.00;;;14.80;99.90;;;;;;5001911;28;20044;-60
2021/09/08 03:42:40;;;;;;;16.15;11.00;;;14.80;99.90;;;;;;5005833;28;20032;-60
2021/09/08 03:45:08;;;;;;;15.50;9.30;;;14.70;99.90;;;;;;5001881;28;20023;-59
2021/09/08 03:47:33;;;;;;;16.95;10.40;;;14.70;99.90;;;;;;5003478;28;20037;-59
2021/09/08 03:49:59;;;;;;;18.00;11.48;;;14.60;99.90;;;;;;5004585;28;20045;-57
2021/09/08 03:52:24;;;;;;;21.98;12.23;;;14.60;99.90;;;;;;5007680;28;20026;-59
2021/09/08 03:54:50;;;;;;;14.45;10.77;;;14.60;99.90;;;;;;5004539;28;20034;-57
2021/09/08 03:57:15;;;;;;;17.52;10.40;;;14.60;99.90;;;;;;5005132;28;20026;-58
2021/09/08 03:59:41;;;;;;;15.15;10.25;;;14.60;99.90;;;;;;4999585;28;20057;-59
2021/09/08 04:02:06;;;;;;;16.67;10.90;;;14.60;99.90;;;;;;5007482;28;20816;-60
2021/09/08 04:04:32;;;;;;;22.65;12.23;;;14.60;99.90;;;;;;5000965;28;20409;-58
2021/09/08 04:06:58;;;;;;;16.58;10.52;;;14.60;99.90;;;;;;5004268;28;20117;-56
2021/09/08 04:09:23;;;;;;;18.15;10.82;;;14.60;99.90;;;;;;5007723;28;20029;-57
2021/09/08 04:11:49;;;;;;;16.83;11.07;;;14.70;99.90;;;;;;5008929;28;20080;-57
2021/09/08 04:14:15;;;;;;;16.23;11.25;;;14.70;99.90;;;;;;5007007;28;20034;-57
2021/09/08 04:16:40;;;;;;;16.10;11.27;;;14.60;99.90;;;;;;5008645;28;20026;-59
2021/09/08 04:19:06;;;;;;;21.17;11.32;;;14.60;99.90;;;;;;5007898;28;20427;-59
2021/09/08 04:21:31;;;;;;;20.95;11.73;;;14.60;99.90;;;;;;5003720;28;20447;-56
2021/09/08 04:23:57;;;;;;;17.98;10.93;;;14.70;99.90;;;;;;5004288;28;20041;-58
2021/09/08 04:26:22;;;;;;;13.90;10.93;;;14.70;99.90;;;;;;5006523;28;20030;-59
2021/09/08 04:28:48;;;;;;;19.83;12.05;;;14.70;99.90;;;;;;5011513;28;20034;-54
2021/09/08 04:31:14;;;;;;;20.38;10.98;;;14.70;99.90;;;;;;5004673;28;20496;-57
2021/09/08 04:33:39;;;;;;;17.33;11.15;;;14.80;99.90;;;;;;5008353;28;20109;-59
2021/09/08 04:36:05;;;;;;;22.42;11.00;;;14.80;99.90;;;;;;4994193;28;20021;-57
2021/09/08 04:38:30;;;;;;;21.95;11.60;;;14.80;99.90;;;;;;5006028;28;20041;-57
2021/09/08 04:40:56;;;;;;;15.35;11.38;;;14.70;99.90;;;;;;4997549;28;20054;-56
2021/09/08 04:43:22;;;;;;;15.93;10.15;;;14.70;99.90;;;;;;5006094;28;20029;-56
2021/09/08 04:45:48;;;;;;;17.35;10.95;;;14.70;99.90;;;;;;5002726;28;20420;-59
2021/09/08 04:48:14;;;;;;;17.90;11.73;;;14.60;99.90;;;;;;5008320;28;20041;-58
2021/09/08 04:50:40;;;;;;;19.35;12.50;;;14.60;99.90;;;;;;5009698;28;20027;-58
2021/09/08 04:53:05;;;;;;;19.35;10.73;;;14.50;99.90;;;;;;5012043;28;20090;-56
2021/09/08 04:55:31;;;;;;;14.68;10.45;;;14.50;99.90;;;;;;5007909;28;20034;-61
2021/09/08 04:57:57;;;;;;;15.57;11.40;;;14.50;99.90;;;;;;5001476;28;20449;-58
2021/09/08 05:00:22;;;;;;;17.63;11.48;;;14.50;99.90;;;;;;5008351;28;20036;-59
2021/09/08 05:02:48;;;;;;;16.77;11.95;;;14.50;99.90;;;;;;5004202;28;20041;-60
2021/09/08 05:05:13;;;;;;;19.67;11.82;;;14.50;99.90;;;;;;5007576;28;20053;-56
2021/09/08 05:07:39;;;;;;;18.20;11.18;;;14.60;99.90;;;;;;5011237;28;20034;-58
2021/09/08 05:10:05;;;;;;;18.83;11.25;;;14.60;99.90;;;;;;5002909;28;20077;-54
2021/09/08 05:12:31;;;;;;;16.20;11.45;;;14.70;99.90;;;;;;5010327;28;20037;-56
2021/09/08 05:14:56;;;;;;;18.42;11.73;;;14.70;99.90;;;;;;5004687;28;20030;-56
2021/09/08 05:17:22;;;;;;;19.00;11.85;;;14.80;99.90;;;;;;5006276;28;20091;-55
2021/09/08 05:19:47;;;;;;;19.15;11.10;;;14.90;99.90;;;;;;5007228;28;20038;-59
2021/09/08 05:22:13;;;;;;;14.05;10.45;;;15.00;99.90;;;;;;5008943;28;20109;-59
2021/09/08 05:24:38;;;;;;;22.20;11.23;;;15.10;99.90;;;;;;5008971;28;20424;-60
2021/09/08 05:27:04;;;;;;;22.63;12.38;;;15.10;99.90;;;;;;5006741;28;20105;-57
2021/09/08 05:29:30;;;;;;;15.65;11.48;;;15.20;99.90;;;;;;5001273;28;20026;-57
2021/09/08 05:31:55;;;;;;;19.52;10.93;;;15.20;99.90;;;;;;5000582;28;20089;-56
2021/09/08 05:34:21;;;;;;;16.77;10.82;;;15.20;99.90;;;;;;5009599;28;20021;-53
2021/09/08 05:36:47;;;;;;;15.13;11.38;;;15.30;99.90;;;;;;5002958;28;20018;-59
2021/09/08 05:39:13;;;;;;;17.45;11.30;;;15.30;99.90;;;;;;5005232;28;20030;-60
2021/09/08 05:41:39;;;;;;;19.25;12.05;;;15.40;99.90;;;;;;5000834;28;20058;-56
2021/09/08 05:44:04;;;;;;;17.25;11.23;;;15.50;99.90;;;;;;5000806;28;20062;-52
2021/09/08 05:46:30;;;;;;;14.50;10.23;;;15.50;99.90;;;;;;5009364;28;20026;-57
2021/09/08 05:48:56;;;;;;;16.90;11.05;;;15.60;99.90;;;;;;5005072;28;20167;-55
2021/09/08 05:51:21;;;;;;;19.15;11.27;;;15.60;99.90;;;;;;5004112;28;20800;-58
2021/09/08 05:53:47;;;;;;;19.13;12.13;;;15.70;99.90;;;;;;5003450;28;20025;-57
2021/09/08 05:56:12;;;;;;;14.40;10.13;;;15.80;99.90;;;;;;4997765;28;20600;-59
2021/09/08 05:58:38;;;;;;;16.33;10.52;;;16.00;99.90;;;;;;5008096;28;20421;-59
2021/09/08 06:01:03;;;;;;;14.70;10.13;;;16.20;99.90;;;;;;5018493;28;20605;-59
2021/09/08 06:03:29;;;;;;;17.25;10.30;;;16.40;99.90;;;;;;5008918;28;20108;-58
2021/09/08 06:05:54;;;;;;;18.13;10.50;;;16.50;99.90;;;;;;5001274;28;20044;-54
2021/09/08 06:08:20;;;;;;;17.52;9.75;;;16.90;99.90;;;;;;5004546;28;20045;-55
2021/09/08 06:10:46;;;;;;;22.58;11.07;;;17.50;99.90;;;;;;5010552;28;20377;-60
2021/09/08 06:13:13;;;;;;;16.70;11.07;;;18.00;99.90;;;;;;5009809;28;20022;-57
2021/09/08 06:15:38;;;;;;;21.58;11.00;;;18.40;99.90;;;;;;5006817;28;20041;-59
2021/09/08 06:18:05;;;;;;;18.80;10.10;;;18.40;99.90;;;;;;5008119;28;20022;-59
2021/09/08 06:20:31;;;;;;;19.23;10.32;;;18.30;99.90;;;;;;4996709;28;20018;-57
2021/09/08 06:22:57;;;;;;;14.95;10.48;;;18.30;99.90;;;;;;5008541;28;20086;-56
2021/09/08 06:25:23;;;;;;;14.60;10.55;;;18.20;99.90;;;;;;5010305;28;20026;-59
2021/09/08 06:27:50;;;;;;;17.50;10.73;;;18.10;99.90;;;;;;5007941;28;20050;-58
2021/09/08 06:30:16;;;;;;;14.23;9.73;;;18.10;99.90;;;;;;5002575;28;20101;-59
2021/09/08 06:32:41;;;;;;;13.15;10.23;;;18.00;99.90;;;;;;5005854;28;20081;-57
2021/09/08 06:35:07;;;;;;;17.60;10.15;;;18.20;99.90;;;;;;5006303;28;20026;-58
2021/09/08 06:37:33;;;;;;;17.13;10.00;;;18.30;99.90;;;;;;5009061;28;20497;-57
2021/09/08 06:39:58;;;;;;;17.05;10.38;;;18.20;99.90;;;;;;4996530;28;20125;-57
2021/09/08 06:42:24;;;;;;;16.25;10.00;;;18.30;99.90;;;;;;5005743;28;20026;-54
2021/09/08 06:44:52;;;;;;;15.98;9.85;;;18.40;99.90;;;;;;5009978;28;20029;-59
2021/09/08 06:47:19;;;;;;;15.55;9.57;;;18.30;99.90;;;;;;4994485;28;20038;-55
2021/09/08 06:49:45;;;;;;;17.90;9.60;;;18.50;99.90;;;;;;5002526;28;20112;-57
2021/09/08 06:52:11;;;;;;;12.48;8.50;;;19.00;99.90;;;;;;5003482;28;20806;-59
2021/09/08 06:54:37;;;;;;;16.00;10.23;;;20.00;99.90;;;;;;5002244;28;20408;-57
2021/09/08 06:57:03;;;;;;;14.25;8.75;;;21.00;99.90;;;;;;5005125;28;20442;-57
2021/09/08 06:59:28;;;;;;;18.65;8.60;;;22.20;99.90;;;;;;5004055;28;20109;-60
2021/09/08 07:01:54;;;;;;;11.80;9.27;;;23.30;98.00;;;;;;5003179;28;20576;-61
2021/09/08 07:04:20;;;;;;;13.55;9.27;;;24.50;96.20;;;;;;5002059;28;20026;-58
2021/09/08 07:06:45;;;;;;;10.85;8.63;;;25.10;94.50;;;;;;5007230;28;20044;-61
2021/09/08 07:09:11;;;;;;;15.00;8.45;;;26.10;93.20;;;;;;5008840;28;20034;-61
2021/09/08 07:11:36;;;;;;;15.85;9.65;;;26.50;92.10;;;;;;5005027;28;20045;-61
2021/09/08 07:14:03;;;;;;;12.23;8.95;;;26.80;90.60;;;;;;5001227;28;20548;-61
2021/09/08 07:16:28;;;;;;;15.18;8.98;;;27.10;90.50;;;;;;5011843;28;20528;-61
2021/09/08 07:18:54;;;;;;;13.38;8.95;;;27.50;90.00;;;;;;5008364;28;20156;-60
2021/09/08 07:21:20;;;;;;;13.45;8.85;;;27.10;89.50;;;;;;5007320;28;20018;-62
2021/09/08 07:23:46;;;;;;;11.57;8.15;;;27.80;88.10;;;;;;5001826;28;20030;-61
2021/09/08 07:26:11;;;;;;;9.35;8.27;;;28.20;86.90;;;;;;5008679;28;20065;-60
2021/09/08 07:28:37;;;;;;;13.32;7.78;;;27.90;87.40;;;;;;5007567;28;20029;-60
2021/09/08 07:31:02;;;;;;;13.20;8.85;;;29.00;83.40;;;;;;5005860;28;20080;-57
2021/09/08 07:33:28;;;;;;;14.00;9.25;;;28.90;82.70;;;;;;4998591;28;20044;-62
2021/09/08 07:35:53;;;;;;;19.02;8.70;;;28.00;85.00;;;;;;5009634;28;20022;-61
2021/09/08 07:38:21;;;;;;;12.07;8.60;;;27.70;85.70;;;;;;4993192;28;20101;-60
2021/09/08 07:40:47;;;;;;;13.57;8.25;;;27.80;86.40;;;;;;4983613;28;20448;-62
2021/09/08 07:43:13;;;;;;;15.75;8.43;;;27.90;85.50;;;;;;5009543;28;20030;-59
2021/09/08 07:45:39;;;;;;;13.93;8.70;;;28.80;84.40;;;;;;5008249;28;20504;-61
2021/09/08 07:48:05;;;;;;;12.13;9.30;;;28.60;82.20;;;;;;5002434;28;20085;-59
2021/09/08 07:50:31;;;;;;;13.43;9.00;;;29.20;81.30;;;;;;5003876;28;20030;-60
2021/09/08 07:52:57;;;;;;;9.95;7.63;;;28.70;81.20;;;;;;5008110;28;20026;-60
2021/09/08 07:55:22;;;;;;;12.18;8.30;;;28.90;81.80;;;;;;4996162;28;21898;-60
2021/09/08 07:57:48;;;;;;;8.70;7.47;;;29.50;81.20;;;;;;5005110;28;20026;-61
2021/09/08 08:00:14;;;;;;;13.52;8.85;;;29.10;82.40;;;;;;5009797;28;20536;-60
2021/09/08 08:02:48;;;;;;;11.70;9.63;;;29.50;79.90;;;;;;5006041;28;20522;-60
2021/09/08 08:05:15;;;;;;;12.00;8.48;;;29.40;78.00;;;;;;5005185;28;20103;-61
2021/09/08 08:07:41;;;;;;;13.07;9.20;;;29.20;80.50;;;;;;5011700;28;20045;-57
2021/09/08 08:10:07;;;;;;;8.82;7.68;;;29.40;79.60;;;;;;5004313;28;20081;-60
2021/09/08 08:12:33;;;;;;;9.68;8.20;;;30.00;79.30;;;;;;5005043;28;20030;-57
2021/09/08 08:14:58;;;;;;;13.65;8.55;;;30.00;77.70;;;;;;5007776;28;20102;-58
2021/09/08 08:17:24;;;;;;;12.88;9.35;;;29.50;78.40;;;;;;5008668;28;20057;-60
2021/09/08 08:19:50;;;;;;;10.48;8.30;;;30.00;79.20;;;;;;5009932;28;20104;-55
2021/09/08 08:22:17;;;;;;;13.50;8.93;;;29.60;79.60;;;;;;5011851;28;20084;-59
2021/09/08 08:24:42;;;;;;;11.55;9.15;;;30.20;76.90;;;;;;5005921;28;20033;-54
2021/09/08 08:27:08;;;;;;;12.30;8.88;;;30.20;76.60;;;;;;5003923;28;20404;-59
2021/09/08 08:29:34;;;;;;;10.32;8.40;;;30.20;76.70;;;;;;5010053;28;20148;-59
2021/09/08 08:31:59;;;;;;;12.27;9.13;;;30.10;77.30;;;;;;5000085;28;20545;-56
2021/09/08 08:34:25;;;;;;;11.68;8.10;;;29.70;77.60;;;;;;5007850;28;20455;-54
2021/09/08 08:36:51;;;;;;;17.95;8.98;;;30.00;78.20;;;;;;5010887;28;20036;-58
2021/09/08 08:39:17;;;;;;;18.52;8.27;;;29.70;77.40;;;;;;4990478;28;20452;-59
2021/09/08 08:41:43;;;;;;;10.60;9.10;;;29.60;78.10;;;;;;5011430;28;20033;-60
2021/09/08 08:44:09;;;;;;;10.88;8.45;;;30.00;78.80;;;;;;4984172;28;20058;-58
2021/09/08 08:46:35;;;;;;;11.10;8.23;;;30.70;77.30;;;;;;4978441;28;20817;-59
2021/09/08 08:49:01;;;;;;;11.70;8.82;;;30.60;76.10;;;;;;4976779;28;20027;-60
2021/09/08 08:51:27;;;;;;;14.02;8.55;;;30.20;76.60;;;;;;4972281;28;20094;-59
2021/09/08 08:53:52;;;;;;;17.75;8.50;;;29.80;78.00;;;;;;4979355;28;20035;-56
2021/09/08 08:56:19;;;;;;;10.77;8.23;;;30.10;78.00;;;;;;4975561;28;20038;-60
2021/09/08 08:58:45;;;;;;;8.48;7.57;;;30.20;77.50;;;;;;4967200;28;21619;-60
2021/09/08 09:01:17;;;;;;;12.68;8.27;;;30.00;76.50;;;;;;4971798;28;20033;-59
2021/09/08 09:04:06;;;;;;;14.65;8.68;;;29.60;75.90;;;;;;4963190;28;20068;-60
2021/09/08 09:06:42;;;;;;;11.30;8.85;;;30.10;76.70;;;;;;4970615;28;20394;-59
2021/09/08 09:09:19;;;;;;;12.15;8.45;;;30.60;76.80;;;;;;4968803;28;20027;-59
2021/09/08 09:11:48;;;;;;;12.57;8.30;;;30.10;75.50;;;;;;4969620;28;20448;-58
2021/09/08 09:14:15;;;;;;;12.65;7.80;;;29.90;78.50;;;;;;4962626;28;20015;-59
2021/09/08 09:16:42;;;;;;;9.80;8.25;;;30.40;77.10;;;;;;4969736;28;20272;-60
2021/09/08 09:19:12;;;;;;;13.77;8.32;;;30.70;76.10;;;;;;4969003;28;20027;-61
2021/09/08 09:21:38;;;;;;;11.45;8.75;;;30.30;75.50;;;;;;4960339;28;20046;-59
2021/09/08 09:24:07;;;;;;;10.32;8.15;;;30.30;75.30;;;;;;4967204;28;20053;-58
2021/09/08 09:26:36;;;;;;;10.57;8.35;;;30.40;74.30;;;;;;4970603;28;20033;-59
2021/09/08 09:29:18;;;;;;;12.25;8.43;;;30.40;73.40;;;;;;4960258;28;20458;-60
2021/09/08 09:31:52;;;;;;;11.75;7.80;;;30.20;72.90;;;;;;4970023;28;20249;-61
2021/09/08 09:34:19;;;;;;;10.85;8.23;;;30.10;76.00;;;;;;4970479;28;20578;-58
2021/09/08 09:36:45;;;;;;;10.25;7.93;;;30.40;76.00;;;;;;4963198;28;20088;-60
2021/09/08 09:39:10;;;;;;;10.43;8.18;;;30.70;76.10;;;;;;4965288;28;20496;-61
2021/09/08 09:41:36;;;;;;;12.10;8.30;;;30.80;74.60;;;;;;4964401;28;20027;-60
2021/09/08 09:44:10;;;;;;;10.82;7.82;;;30.60;73.40;;;;;;4967536;28;20039;-57
2021/09/08 09:46:40;;;;;;;11.68;8.73;;;30.80;75.60;;;;;;4967499;28;20034;-59
2021/09/08 09:49:06;;;;;;;12.90;7.90;;;31.30;73.90;;;;;;4965443;28;20093;-59
2021/09/08 09:51:31;;;;;;;13.77;8.48;;;31.10;73.10;;;;;;4970720;28;20030;-60
2021/09/08 09:53:58;;;;;;;13.70;8.80;;;30.70;74.90;;;;;;4968454;28;20026;-60
2021/09/08 09:56:23;;;;;;;15.88;8.02;;;30.50;75.30;;;;;;4970766;28;20122;-58
2021/09/08 09:58:49;;;;;;;11.15;7.60;;;30.40;77.60;;;;;;4969801;28;20650;-59
2021/09/08 10:01:14;;;;;;;10.55;8.65;;;30.20;78.20;;;;;;4960057;28;20560;-57
2021/09/08 10:03:41;;;;;;;10.63;8.07;;;30.00;76.00;;;;;;4972478;28;21272;-54
2021/09/08 10:06:06;;;;;;;9.27;7.70;;;29.80;77.40;;;;;;4982838;28;20456;-55
2021/09/08 10:08:37;;;;;;;15.90;8.70;;;29.80;77.70;;;;;;4969282;28;20121;-59
2021/09/08 10:11:07;;;;;;;10.90;7.85;;;29.50;76.60;;;;;;4969583;28;20568;-55
2021/09/08 10:13:40;;;;;;;12.18;7.93;;;29.40;75.80;;;;;;4969805;28;20379;-59
2021/09/08 10:16:06;;;;;;;11.18;8.27;;;28.90;73.70;;;;;;4968121;28;20474;-59
2021/09/08 10:18:35;;;;;;;10.82;7.95;;;28.70;76.90;;;;;;4982859;28;20069;-57
2021/09/08 10:21:03;;;;;;;10.65;7.88;;;28.60;77.00;;;;;;4969604;28;20054;-60
2021/09/08 10:23:34;;;;;;;11.98;7.90;;;28.60;78.70;;;;;;4970090;28;20381;-58
2021/09/08 10:26:10;;;;;;;13.77;8.75;;;28.60;76.20;;;;;;4967256;28;20027;-58
2021/09/08 10:28:36;;;;;;;10.95;8.27;;;28.40;77.30;;;;;;4970022;28;20033;-58
2021/09/08 10:31:02;;;;;;;13.68;7.57;;;28.20;78.30;;;;;;4969117;28;20035;-58
2021/09/08 10:33:28;;;;;;;10.98;8.35;;;28.20;77.50;;;;;;4970587;28;20034;-56
2021/09/08 10:35:54;;;;;;;11.05;8.07;;;28.20;78.10;;;;;;4965719;28;20023;-57
2021/09/08 10:38:23;;;;;;;10.00;7.75;;;27.90;75.30;;;;;;4967925;28;20057;-56
2021/09/08 10:40:51;;;;;;;8.52;7.00;;;27.90;75.10;;;;;;4967176;28;20089;-54
2021/09/08 10:43:29;;;;;;;9.02;7.30;;;27.90;75.50;;;;;;4967293;28;20019;-59
2021/09/08 10:45:55;;;;;;;8.77;7.55;;;27.80;76.70;;;;;;4965271;28;20664;-60
2021/09/08 10:48:44;;;;;;;11.75;7.82;;;28.00;79.40;;;;;;4966921;28;20106;-54
2021/09/08 10:51:32;;;;;;;16.40;8.18;;;27.80;75.80;;;;;;4968273;28;20031;-58
2021/09/08 10:54:03;;;;;;;11.60;7.80;;;27.80;77.90;;;;;;4966544;28;20045;-50
2021/09/08 10:56:44;;;;;;;11.52;7.30;;;27.70;77.00;;;;;;4969149;28;20570;-58
2021/09/08 10:59:09;;;;;;;9.70;7.60;;;27.60;77.90;;;;;;4965842;28;20027;-58
2021/09/08 11:01:35;;;;;;;9.43;7.90;;;27.60;76.70;;;;;;4965667;28;20097;-56
2021/09/08 11:04:01;;;;;;;8.95;7.03;;;27.50;78.30;;;;;;4964574;28;20037;-58
2021/09/08 11:06:44;;;;;;;8.68;7.13;;;27.60;78.00;;;;;;4958424;28;20046;-53
2021/09/08 11:09:11;;;;;;;12.98;8.25;;;27.40;77.90;;;;;;4962456;28;20486;-57
2021/09/08 11:11:50;;;;;;;15.73;7.43;;;27.50;79.50;;;;;;4967944;28;20034;-59
2021/09/08 11:14:16;;;;;;;10.55;7.80;;;27.60;79.30;;;;;;4962384;28;20026;-57
2021/09/08 11:16:42;;;;;;;8.90;7.32;;;27.50;79.80;;;;;;4962137;28;20034;-60
2021/09/08 11:19:11;;;;;;;10.52;7.50;;;27.50;79.90;;;;;;4957381;28;20037;-56
2021/09/08 11:21:37;;;;;;;11.27;7.93;;;27.50;77.30;;;;;;4960725;28;20046;-59
2021/09/08 11:24:06;;;;;;;9.80;7.28;;;27.40;80.00;;;;;;4964534;28;20119;-55
2021/09/08 11:26:34;;;;;;;11.25;8.02;;;27.40;79.70;;;;;;4965592;28;20085;-58
2021/09/08 11:29:03;;;;;;;11.77;7.30;;;27.40;79.00;;;;;;4964660;28;20019;-58
2021/09/08 11:31:38;;;;;;;11.63;8.55;;;27.20;78.60;;;;;;4961008;28;20035;-58
2021/09/08 11:34:16;;;;;;;10.98;7.68;;;27.00;79.60;;;;;;4965603;28;20031;-56
2021/09/08 11:36:41;;;;;;;14.40;7.55;;;27.00;82.10;;;;;;4961698;28;20104;-56
2021/09/08 11:39:16;;;;;;;12.80;8.05;;;27.10;83.30;;;;;;4960926;28;20103;-57
2021/09/08 11:42:05;;;;;;;14.88;8.45;;;27.30;83.20;;;;;;4963309;28;20026;-58
2021/09/08 11:44:32;;;;;;;10.30;8.48;;;27.30;81.60;;;;;;4967180;28;20034;-57
2021/09/08 11:46:58;;;;;;;12.23;8.40;;;27.10;80.40;;;;;;4967077;28;20033;-57
2021/09/08 11:49:24;;;;;;;11.07;8.23;;;26.80;80.20;;;;;;4962921;28;20039;-59
2021/09/08 11:51:50;;;;;;;17.23;8.75;;;26.70;80.70;;;;;;4962379;28;20085;-59
2021/09/08 11:54:24;;;;;;;10.05;8.43;;;26.70;82.10;;;;;;4962090;28;20030;-57
2021/09/08 11:56:58;;;;;;;9.02;7.55;;;26.70;80.80;;;;;;4967140;28;20398;-58
2021/09/08 11:59:33;;;;;;;10.32;7.88;;;26.80;81.90;;;;;;4931393;28;1034234;-57
2021/09/08 12:01:59;;;;;;;13.32;8.55;;;26.60;82.30;;;;;;4968441;28;20158;-55
2021/09/08 12:04:27;;;;;;;11.10;7.97;;;26.40;81.80;;;;;;4966075;28;20023;-50
2021/09/08 12:07:02;;;;;;;9.93;7.72;;;26.40;80.20;;;;;;4942765;28;20122;-59
2021/09/08 12:09:43;;;;;;;13.77;7.50;;;26.50;81.20;;;;;;4968017;28;20077;-52
2021/09/08 12:12:15;;;;;;;14.50;7.15;;;26.50;81.40;;;;;;4969203;28;20114;-58
2021/09/08 12:14:43;;;;;;;12.45;7.05;;;26.50;80.70;;;;;;4962379;28;20030;-58
2021/09/08 12:17:09;;;;;;;9.07;6.97;;;26.50;79.10;;;;;;4961398;28;20023;-57
2021/09/08 12:19:36;;;;;;;9.48;7.05;;;26.50;79.00;;;;;;4968805;28;20027;-60
2021/09/08 12:22:15;;;;;;;9.10;6.43;;;26.60;82.20;;;;;;4962052;28;20034;-57
2021/09/08 12:24:52;;;;;;;14.75;6.47;;;26.60;79.20;;;;;;4957356;28;20474;-59
2021/09/08 12:27:38;;;;;;;8.82;7.00;;;26.60;77.10;;;;;;4960113;28;20034;-53
2021/09/08 12:30:21;;;;;;;8.70;6.65;;;26.60;77.30;;;;;;4958938;28;20343;-56
2021/09/08 12:33:04;;;;;;;11.80;7.17;;;26.60;79.00;;;;;;4964703;28;20568;-57